createdAt,value
2023-05-23T00:01:47.069Z,20.12
2023-05-23T00:07:09.013Z,20.12
2023-05-23T00:12:30.813Z,20.10
2023-05-23T00:17:53.411Z,20.10
2023-05-23T00:23:19.527Z,20.10
2023-05-23T00:28:41.500Z,20.09
2023-05-23T00:34:03.428Z,20.09
2023-05-23T00:39:25.560Z,20.08
2023-05-23T00:44:48.682Z,20.08
2023-05-23T00:50:12.690Z,20.07
2023-05-23T00:55:34.831Z,20.06
2023-05-23T01:00:56.709Z,20.04
2023-05-23T01:06:18.918Z,20.04
2023-05-23T01:11:49.221Z,20.06
2023-05-23T01:17:20.400Z,20.04
2023-05-23T01:23:03.070Z,20.02
2023-05-23T01:28:29.865Z,20.01
2023-05-23T01:33:53.702Z,19.99
2023-05-23T01:39:15.734Z,19.98
2023-05-23T01:44:39.626Z,19.97
2023-05-23T01:50:02.744Z,19.98
2023-05-23T01:55:26.744Z,19.98
2023-05-23T02:00:48.663Z,19.97
2023-05-23T02:06:11.123Z,19.97
2023-05-23T02:11:32.991Z,19.95
2023-05-23T02:16:55.225Z,19.93
2023-05-23T02:22:17.257Z,19.93
2023-05-23T02:27:39.255Z,19.90
2023-05-23T02:33:05.828Z,19.92
2023-05-23T02:38:27.714Z,19.89
2023-05-23T02:43:49.562Z,19.86
2023-05-23T02:49:11.414Z,19.86
2023-05-23T02:54:33.210Z,19.84
2023-05-23T02:59:55.171Z,19.84
2023-05-23T03:05:17.350Z,19.83
2023-05-23T03:10:39.308Z,19.83
2023-05-23T03:16:01.288Z,19.81
2023-05-23T03:21:23.113Z,19.81
2023-05-23T03:26:45.445Z,19.81
2023-05-23T03:32:07.523Z,19.81
2023-05-23T03:37:29.459Z,19.80
2023-05-23T03:43:06.058Z,19.81
2023-05-23T03:48:28.044Z,19.79
2023-05-23T03:53:49.846Z,19.77
2023-05-23T03:59:11.659Z,19.78
2023-05-23T04:04:33.623Z,19.78
2023-05-23T04:09:55.515Z,19.78
2023-05-23T04:15:18.201Z,19.78
2023-05-23T04:20:40.050Z,19.78
2023-05-23T04:26:01.972Z,19.77
2023-05-23T04:31:24.036Z,19.78
2023-05-23T04:36:45.954Z,19.78
2023-05-23T04:42:07.826Z,19.78
2023-05-23T04:47:29.643Z,19.77
2023-05-23T04:52:51.469Z,19.75
2023-05-23T04:58:13.643Z,19.75
2023-05-23T05:03:35.758Z,19.76
2023-05-23T05:08:57.590Z,19.74
2023-05-23T05:14:19.423Z,19.73
2023-05-23T05:19:41.360Z,19.73
2023-05-23T05:25:04.051Z,19.71
2023-05-23T05:30:25.860Z,19.75
2023-05-23T05:35:47.745Z,19.76
2023-05-23T05:41:09.807Z,19.76
2023-05-23T05:46:31.717Z,19.76
2023-05-23T05:51:53.589Z,19.76
2023-05-23T05:57:15.438Z,19.75
2023-05-23T06:02:37.288Z,19.75
2023-05-23T06:07:59.122Z,19.74
2023-05-23T06:13:20.946Z,19.75
2023-05-23T06:18:42.772Z,19.74
2023-05-23T06:24:04.848Z,19.74
2023-05-23T06:29:26.748Z,19.76
2023-05-23T06:34:48.616Z,19.82
2023-05-23T06:40:11.265Z,19.85
2023-05-23T06:45:35.424Z,19.85
2023-05-23T06:50:57.354Z,19.84
2023-05-23T06:56:19.381Z,19.84
2023-05-23T07:01:41.310Z,19.84
2023-05-23T07:07:03.281Z,19.84
2023-05-23T07:12:25.114Z,19.82
2023-05-23T07:17:47.010Z,19.83
2023-05-23T07:23:08.882Z,19.84
2023-05-23T07:28:30.748Z,19.91
2023-05-23T07:33:57.031Z,19.98
2023-05-23T07:39:22.973Z,20.08
2023-05-23T07:44:45.043Z,20.15
2023-05-23T07:50:07.667Z,20.26
2023-05-23T07:55:29.575Z,20.37
2023-05-23T08:00:52.949Z,20.41
2023-05-23T08:06:15.211Z,20.39
2023-05-23T08:11:37.018Z,20.34
2023-05-23T08:16:59.097Z,20.32
2023-05-23T08:22:21.003Z,20.28
2023-05-23T08:27:42.836Z,20.23
2023-05-23T08:33:07.813Z,20.20
2023-05-23T08:38:30.008Z,20.17
2023-05-23T08:43:52.071Z,20.18
2023-05-23T08:49:18.090Z,20.16
2023-05-23T08:54:44.043Z,20.14
2023-05-23T09:00:11.371Z,20.13
2023-05-23T09:05:33.720Z,20.15
2023-05-23T09:10:56.174Z,20.17
2023-05-23T09:16:19.455Z,20.12
2023-05-23T09:21:45.584Z,20.08
2023-05-23T09:27:08.584Z,20.03
2023-05-23T09:32:30.483Z,20.03
2023-05-23T09:37:56.413Z,20.07
2023-05-23T09:43:19.025Z,20.08
2023-05-23T09:48:40.982Z,20.05
2023-05-23T09:54:02.830Z,20.04
2023-05-23T09:59:29.420Z,19.99
2023-05-23T10:04:53.197Z,19.98
2023-05-23T10:10:15.924Z,19.98
2023-05-23T10:15:41.209Z,19.98
2023-05-23T10:21:10.026Z,19.98
2023-05-23T10:26:32.445Z,19.99
2023-05-23T10:31:56.699Z,19.99
2023-05-23T10:37:47.400Z,20.01
2023-05-23T10:43:45.040Z,20.01
2023-05-23T10:49:09.025Z,20.04
2023-05-23T10:54:36.451Z,20.04
2023-05-23T10:59:58.686Z,20.02
2023-05-23T11:05:23.783Z,20.03
2023-05-23T11:11:04.445Z,20.08
2023-05-23T11:16:31.488Z,20.05
2023-05-23T11:22:00.344Z,20.04
2023-05-23T11:27:42.110Z,20.03
2023-05-23T11:33:14.106Z,20.01
2023-05-23T11:38:36.310Z,20.01
2023-05-23T11:44:00.080Z,20.03
2023-05-23T11:49:22.086Z,20.05
2023-05-23T11:54:44.245Z,20.06
2023-05-23T12:00:10.366Z,20.07
2023-05-23T12:05:32.292Z,20.07
2023-05-23T12:10:57.823Z,20.09
2023-05-23T12:16:19.649Z,20.04
2023-05-23T12:21:48.984Z,20.06
2023-05-23T12:27:11.010Z,20.03
2023-05-23T12:32:33.609Z,20.03
2023-05-23T12:37:57.081Z,20.07
2023-05-23T12:43:19.093Z,20.03
2023-05-23T12:48:41.386Z,20.05
2023-05-23T12:54:03.317Z,20.06
2023-05-23T12:59:25.142Z,20.04
2023-05-23T13:04:46.968Z,20.06
2023-05-23T13:10:09.608Z,20.03
2023-05-23T13:15:32.593Z,20.04
2023-05-23T13:20:56.510Z,20.03
2023-05-23T13:26:18.353Z,20.05
2023-05-23T13:31:40.314Z,20.06
2023-05-23T13:37:02.281Z,20.06
2023-05-23T13:42:24.198Z,20.07
2023-05-23T13:47:46.881Z,20.17
2023-05-23T13:53:14.772Z,20.21
2023-05-23T13:58:36.605Z,20.27
2023-05-23T14:03:58.473Z,20.31
2023-05-23T14:09:22.308Z,20.32
2023-05-23T14:14:45.077Z,20.33
2023-05-23T14:20:08.048Z,20.35
2023-05-23T14:25:30.846Z,20.33
2023-05-23T14:30:52.642Z,20.32
2023-05-23T14:36:14.509Z,20.32
2023-05-23T14:41:36.828Z,20.29
2023-05-23T14:46:58.853Z,20.33
2023-05-23T14:52:20.704Z,20.37
2023-05-23T14:57:43.401Z,20.36
2023-05-23T15:03:05.386Z,20.32
2023-05-23T15:08:27.278Z,20.29
2023-05-23T15:13:49.086Z,20.25
2023-05-23T15:19:11.317Z,20.27
2023-05-23T15:24:35.004Z,20.27
2023-05-23T15:29:57.059Z,20.26
2023-05-23T15:35:19.885Z,20.26
2023-05-23T15:40:42.057Z,20.23
2023-05-23T15:46:05.207Z,20.21
2023-05-23T15:51:27.154Z,20.20
2023-05-23T15:56:49.288Z,20.18
2023-05-23T16:02:11.231Z,20.17
2023-05-23T16:07:33.124Z,20.16
2023-05-23T16:12:54.955Z,20.14
2023-05-23T16:18:16.809Z,20.16
2023-05-23T16:23:38.644Z,20.17
2023-05-23T16:29:00.484Z,20.21
2023-05-23T16:34:22.304Z,20.22
2023-05-23T16:39:44.159Z,20.18
2023-05-23T16:45:06.849Z,20.14
2023-05-23T16:50:28.712Z,20.09
2023-05-23T16:55:50.894Z,20.06
2023-05-23T17:01:13.564Z,20.02
2023-05-23T17:06:35.474Z,19.98
2023-05-23T17:11:57.391Z,19.95
2023-05-23T17:17:19.358Z,19.90
2023-05-23T17:22:42.056Z,19.90
2023-05-23T17:28:03.936Z,19.90
2023-05-23T17:33:25.890Z,19.89
2023-05-23T17:38:47.762Z,19.90
2023-05-23T17:44:09.680Z,19.90
2023-05-23T17:49:31.598Z,19.88
2023-05-23T17:54:53.475Z,19.89
2023-05-23T18:00:16.501Z,19.90
2023-05-23T18:05:38.402Z,19.91
2023-05-23T18:11:00.358Z,19.91
2023-05-23T18:16:22.451Z,19.91
2023-05-23T18:21:44.452Z,19.93
2023-05-23T18:27:06.522Z,19.95
2023-05-23T18:32:28.370Z,19.95
2023-05-23T18:37:50.311Z,19.96
2023-05-23T18:43:13.685Z,19.97
2023-05-23T18:48:36.138Z,19.98
2023-05-23T18:53:58.496Z,19.97
2023-05-23T18:59:20.350Z,19.93
2023-05-23T19:04:42.257Z,19.93
2023-05-23T19:10:04.373Z,19.93
2023-05-23T19:15:26.286Z,19.91
2023-05-23T19:20:48.407Z,19.93
2023-05-23T19:26:10.588Z,19.92
2023-05-23T19:31:32.706Z,19.94
2023-05-23T19:36:54.725Z,19.93
2023-05-23T19:42:16.952Z,19.88
2023-05-23T19:47:38.914Z,19.90
2023-05-23T19:53:00.874Z,19.90
2023-05-23T19:58:22.750Z,19.92
2023-05-23T20:03:44.721Z,19.92
2023-05-23T20:09:06.629Z,19.92
2023-05-23T20:14:30.988Z,19.91
2023-05-23T20:19:52.960Z,19.90
2023-05-23T20:25:14.893Z,19.91
2023-05-23T20:30:37.021Z,19.90
2023-05-23T20:35:59.465Z,19.89
2023-05-23T20:41:21.770Z,19.88
2023-05-23T20:46:46.137Z,19.87
2023-05-23T20:52:08.384Z,19.84
2023-05-23T20:57:30.430Z,19.83
2023-05-23T21:02:52.310Z,19.80
2023-05-23T21:08:14.282Z,19.78
2023-05-23T21:13:39.001Z,19.76
2023-05-23T21:19:01.711Z,19.73
2023-05-23T21:24:24.524Z,19.72
2023-05-23T21:29:47.717Z,19.69
2023-05-23T21:35:09.803Z,19.69
2023-05-23T21:40:31.960Z,19.69
2023-05-23T21:45:53.780Z,19.68
2023-05-23T21:51:15.807Z,19.68
2023-05-23T21:56:37.692Z,19.66
2023-05-23T22:01:59.916Z,19.66
2023-05-23T22:07:25.526Z,19.65
2023-05-23T22:12:47.370Z,19.63
2023-05-23T22:18:09.260Z,19.63
2023-05-23T22:23:32.035Z,19.63
2023-05-23T22:28:54.589Z,19.62
2023-05-23T22:34:16.862Z,19.61
2023-05-23T22:39:38.710Z,19.60
2023-05-23T22:45:00.904Z,19.59
2023-05-23T22:50:23.116Z,19.57
2023-05-23T22:55:44.909Z,19.56
2023-05-23T23:01:06.806Z,19.55
2023-05-23T23:06:29.587Z,19.56
2023-05-23T23:11:51.411Z,19.55
2023-05-23T23:17:13.855Z,19.54
2023-05-23T23:22:36.653Z,19.54
2023-05-23T23:27:58.463Z,19.53
2023-05-23T23:33:20.293Z,19.52
2023-05-23T23:38:42.143Z,19.51
2023-05-23T23:44:04.137Z,19.50
2023-05-23T23:49:25.962Z,19.50
2023-05-23T23:54:47.746Z,19.49
